sensor_id;sensor_type;location;lat;lon;timestamp;temperature;humidity
7216;DHT22;3649;48.798;9.798;2022-07-30T00:01:43;23.50;99.90
7216;DHT22;3649;48.798;9.798;2022-07-30T00:04:10;23.30;99.90
7216;DHT22;3649;48.798;9.798;2022-07-30T00:06:37;23.30;99.90
7216;DHT22;3649;48.798;9.798;2022-07-30T00:09:05;23.30;99.90
7216;DHT22;3649;48.798;9.798;2022-07-30T00:11:32;23.30;99.90
7216;DHT22;3649;48.798;9.798;2022-07-30T00:14:00;23.30;99.90
7216;DHT22;3649;48.798;9.798;2022-07-30T00:16:27;23.30;99.90
7216;DHT22;3649;48.798;9.798;2022-07-30T00:18:54;23.30;99.90
7216;DHT22;3649;48.798;9.798;2022-07-30T00:21:21;23.30;99.90
7216;DHT22;3649;48.798;9.798;2022-07-30T00:24:02;23.20;99.90
7216;DHT22;3649;48.798;9.798;2022-07-30T00:26:29;23.10;99.90
7216;DHT22;3649;48.798;9.798;2022-07-30T00:28:56;23.00;99.90
7216;DHT22;3649;48.798;9.798;2022-07-30T00:31:23;22.90;99.90
7216;DHT22;3649;48.798;9.798;2022-07-30T00:33:50;22.80;99.90
7216;DHT22;3649;48.798;9.798;2022-07-30T00:36:16;22.80;99.90
7216;DHT22;3649;48.798;9.798;2022-07-30T00:38:43;22.80;99.90
7216;DHT22;3649;48.798;9.798;2022-07-30T00:41:10;22.80;99.90
7216;DHT22;3649;48.798;9.798;2022-07-30T00:43:38;22.80;99.90
7216;DHT22;3649;48.798;9.798;2022-07-30T00:46:05;22.70;99.90
7216;DHT22;3649;48.798;9.798;2022-07-30T00:48:32;22.70;99.90
7216;DHT22;3649;48.798;9.798;2022-07-30T00:50:58;22.80;99.90
7216;DHT22;3649;48.798;9.798;2022-07-30T00:53:25;22.80;99.90
7216;DHT22;3649;48.798;9.798;2022-07-30T00:55:52;22.80;99.90
7216;DHT22;3649;48.798;9.798;2022-07-30T00:58:19;22.90;99.90
7216;DHT22;3649;48.798;9.798;2022-07-30T01:00:46;22.80;99.90
7216;DHT22;3649;48.798;9.798;2022-07-30T01:03:13;22.80;99.90
7216;DHT22;3649;48.798;9.798;2022-07-30T01:05:40;22.80;99.90
7216;DHT22;3649;48.798;9.798;2022-07-30T01:08:06;22.80;99.90
7216;DHT22;3649;48.798;9.798;2022-07-30T01:10:33;22.70;99.90
7216;DHT22;3649;48.798;9.798;2022-07-30T01:13:00;22.70;99.90
7216;DHT22;3649;48.798;9.798;2022-07-30T01:15:28;22.70;99.90
7216;DHT22;3649;48.798;9.798;2022-07-30T01:17:58;22.60;99.90
7216;DHT22;3649;48.798;9.798;2022-07-30T01:20:31;22.50;99.90
7216;DHT22;3649;48.798;9.798;2022-07-30T01:23:24;22.50;99.90
7216;DHT22;3649;48.798;9.798;2022-07-30T01:26:12;22.50;99.90
7216;DHT22;3649;48.798;9.798;2022-07-30T01:28:50;22.50;99.90
7216;DHT22;3649;48.798;9.798;2022-07-30T01:31:18;22.50;99.90
7216;DHT22;3649;48.798;9.798;2022-07-30T01:33:47;22.40;99.90
7216;DHT22;3649;48.798;9.798;2022-07-30T01:36:17;22.40;99.90
7216;DHT22;3649;48.798;9.798;2022-07-30T01:38:46;22.40;99.90
7216;DHT22;3649;48.798;9.798;2022-07-30T01:41:16;22.40;99.90
7216;DHT22;3649;48.798;9.798;2022-07-30T01:43:45;22.30;99.90
7216;DHT22;3649;48.798;9.798;2022-07-30T01:46:14;22.30;99.90
7216;DHT22;3649;48.798;9.798;2022-07-30T01:48:43;22.30;99.90
7216;DHT22;3649;48.798;9.798;2022-07-30T01:51:11;22.30;99.90
7216;DHT22;3649;48.798;9.798;2022-07-30T01:53:39;22.30;99.90
7216;DHT22;3649;48.798;9.798;2022-07-30T01:56:10;22.30;99.90
7216;DHT22;3649;48.798;9.798;2022-07-30T01:58:43;22.30;99.90
7216;DHT22;3649;48.798;9.798;2022-07-30T02:01:12;22.40;99.90
7216;DHT22;3649;48.798;9.798;2022-07-30T02:03:39;22.40;99.90
7216;DHT22;3649;48.798;9.798;2022-07-30T02:06:10;22.50;99.90
7216;DHT22;3649;48.798;9.798;2022-07-30T02:08:50;22.40;99.90
7216;DHT22;3649;48.798;9.798;2022-07-30T02:11:18;22.40;99.90
7216;DHT22;3649;48.798;9.798;2022-07-30T02:14:13;22.40;99.90
7216;DHT22;3649;48.798;9.798;2022-07-30T02:16:43;22.30;99.90
7216;DHT22;3649;48.798;9.798;2022-07-30T02:19:15;22.30;99.90
7216;DHT22;3649;48.798;9.798;2022-07-30T02:21:46;22.30;99.90
7216;DHT22;3649;48.798;9.798;2022-07-30T02:24:21;22.30;99.90
7216;DHT22;3649;48.798;9.798;2022-07-30T02:26:58;22.30;99.90
7216;DHT22;3649;48.798;9.798;2022-07-30T02:29:28;22.20;99.90
7216;DHT22;3649;48.798;9.798;2022-07-30T02:31:56;22.20;99.90
7216;DHT22;3649;48.798;9.798;2022-07-30T02:34:24;22.20;99.90
7216;DHT22;3649;48.798;9.798;2022-07-30T02:36:53;22.20;99.90
7216;DHT22;3649;48.798;9.798;2022-07-30T02:39:21;22.20;99.90
7216;DHT22;3649;48.798;9.798;2022-07-30T02:41:49;22.10;99.90
7216;DHT22;3649;48.798;9.798;2022-07-30T02:44:17;22.10;99.90
7216;DHT22;3649;48.798;9.798;2022-07-30T02:46:46;22.10;99.90
7216;DHT22;3649;48.798;9.798;2022-07-30T02:49:15;22.10;99.90
7216;DHT22;3649;48.798;9.798;2022-07-30T02:51:46;22.10;99.90
7216;DHT22;3649;48.798;9.798;2022-07-30T02:54:14;22.20;99.90
7216;DHT22;3649;48.798;9.798;2022-07-30T02:56:44;22.20;99.90
7216;DHT22;3649;48.798;9.798;2022-07-30T02:59:12;22.30;99.90
7216;DHT22;3649;48.798;9.798;2022-07-30T03:01:40;22.30;99.90
7216;DHT22;3649;48.798;9.798;2022-07-30T03:04:08;22.30;99.90
7216;DHT22;3649;48.798;9.798;2022-07-30T03:06:36;22.30;99.90
7216;DHT22;3649;48.798;9.798;2022-07-30T03:09:04;22.20;99.90
7216;DHT22;3649;48.798;9.798;2022-07-30T03:11:33;22.30;99.90
7216;DHT22;3649;48.798;9.798;2022-07-30T03:14:00;22.20;99.90
7216;DHT22;3649;48.798;9.798;2022-07-30T03:16:29;22.20;99.90
7216;DHT22;3649;48.798;9.798;2022-07-30T03:19:00;22.30;99.90
7216;DHT22;3649;48.798;9.798;2022-07-30T03:21:31;22.20;99.90
7216;DHT22;3649;48.798;9.798;2022-07-30T03:24:01;22.20;99.90
7216;DHT22;3649;48.798;9.798;2022-07-30T03:26:29;22.10;99.90
7216;DHT22;3649;48.798;9.798;2022-07-30T03:28:57;22.00;99.90
7216;DHT22;3649;48.798;9.798;2022-07-30T03:31:25;22.00;99.90
7216;DHT22;3649;48.798;9.798;2022-07-30T03:34:02;22.00;99.90
7216;DHT22;3649;48.798;9.798;2022-07-30T03:36:32;22.00;99.90
7216;DHT22;3649;48.798;9.798;2022-07-30T03:39:01;22.00;99.90
7216;DHT22;3649;48.798;9.798;2022-07-30T03:41:29;22.00;99.90
7216;DHT22;3649;48.798;9.798;2022-07-30T03:43:58;22.00;99.90
7216;DHT22;3649;48.798;9.798;2022-07-30T03:46:26;22.00;99.90
7216;DHT22;3649;48.798;9.798;2022-07-30T03:48:55;22.00;99.90
7216;DHT22;3649;48.798;9.798;2022-07-30T03:51:23;22.00;99.90
7216;DHT22;3649;48.798;9.798;2022-07-30T03:53:58;21.90;99.90
7216;DHT22;3649;48.798;9.798;2022-07-30T03:56:26;21.90;99.90
7216;DHT22;3649;48.798;9.798;2022-07-30T03:58:53;21.90;99.90
7216;DHT22;3649;48.798;9.798;2022-07-30T04:01:24;21.90;99.90
7216;DHT22;3649;48.798;9.798;2022-07-30T04:03:52;21.90;99.90
7216;DHT22;3649;48.798;9.798;2022-07-30T04:06:18;21.80;99.90
7216;DHT22;3649;48.798;9.798;2022-07-30T04:08:45;21.80;99.90
7216;DHT22;3649;48.798;9.798;2022-07-30T04:11:12;21.80;99.90
7216;DHT22;3649;48.798;9.798;2022-07-30T04:13:39;21.80;99.90
7216;DHT22;3649;48.798;9.798;2022-07-30T04:16:15;21.80;99.90
7216;DHT22;3649;48.798;9.798;2022-07-30T04:19:06;21.80;99.90
7216;DHT22;3649;48.798;9.798;2022-07-30T04:21:36;21.80;99.90
7216;DHT22;3649;48.798;9.798;2022-07-30T04:24:04;21.80;99.90
7216;DHT22;3649;48.798;9.798;2022-07-30T04:26:34;21.80;99.90
7216;DHT22;3649;48.798;9.798;2022-07-30T04:29:04;21.90;99.90
7216;DHT22;3649;48.798;9.798;2022-07-30T04:31:31;21.80;99.90
7216;DHT22;3649;48.798;9.798;2022-07-30T04:34:07;21.80;99.90
7216;DHT22;3649;48.798;9.798;2022-07-30T04:36:34;21.80;99.90
7216;DHT22;3649;48.798;9.798;2022-07-30T04:39:02;21.70;99.90
7216;DHT22;3649;48.798;9.798;2022-07-30T04:41:29;21.80;99.90
7216;DHT22;3649;48.798;9.798;2022-07-30T04:44:17;21.90;99.90
7216;DHT22;3649;48.798;9.798;2022-07-30T04:46:44;21.90;99.90
7216;DHT22;3649;48.798;9.798;2022-07-30T04:49:13;21.90;99.90
7216;DHT22;3649;48.798;9.798;2022-07-30T04:51:41;21.90;99.90
7216;DHT22;3649;48.798;9.798;2022-07-30T04:54:12;21.90;99.90
7216;DHT22;3649;48.798;9.798;2022-07-30T04:56:43;21.90;99.90
7216;DHT22;3649;48.798;9.798;2022-07-30T04:59:23;21.80;99.90
7216;DHT22;3649;48.798;9.798;2022-07-30T05:01:50;21.70;99.90
7216;DHT22;3649;48.798;9.798;2022-07-30T05:04:19;21.80;99.90
7216;DHT22;3649;48.798;9.798;2022-07-30T05:06:48;21.80;99.90
7216;DHT22;3649;48.798;9.798;2022-07-30T05:09:16;21.70;99.90
7216;DHT22;3649;48.798;9.798;2022-07-30T05:11:49;21.80;99.90
7216;DHT22;3649;48.798;9.798;2022-07-30T05:14:16;21.90;99.90
7216;DHT22;3649;48.798;9.798;2022-07-30T05:16:43;21.90;99.90
7216;DHT22;3649;48.798;9.798;2022-07-30T05:19:10;21.90;99.90
7216;DHT22;3649;48.798;9.798;2022-07-30T05:21:37;21.90;99.90
7216;DHT22;3649;48.798;9.798;2022-07-30T05:24:05;22.00;99.90
7216;DHT22;3649;48.798;9.798;2022-07-30T05:26:32;22.00;99.90
7216;DHT22;3649;48.798;9.798;2022-07-30T05:28:59;22.00;99.90
7216;DHT22;3649;48.798;9.798;2022-07-30T05:31:29;22.00;99.90
7216;DHT22;3649;48.798;9.798;2022-07-30T05:33:58;22.00;99.90
7216;DHT22;3649;48.798;9.798;2022-07-30T05:36:29;22.10;99.90
7216;DHT22;3649;48.798;9.798;2022-07-30T05:38:56;22.20;99.90
7216;DHT22;3649;48.798;9.798;2022-07-30T05:41:23;22.30;99.90
7216;DHT22;3649;48.798;9.798;2022-07-30T05:43:59;22.20;99.90
7216;DHT22;3649;48.798;9.798;2022-07-30T05:46:26;22.40;99.90
7216;DHT22;3649;48.798;9.798;2022-07-30T05:48:53;22.10;99.90
7216;DHT22;3649;48.798;9.798;2022-07-30T05:51:20;22.10;99.90
7216;DHT22;3649;48.798;9.798;2022-07-30T05:53:48;22.20;99.90
7216;DHT22;3649;48.798;9.798;2022-07-30T05:56:14;22.30;99.90
7216;DHT22;3649;48.798;9.798;2022-07-30T05:58:42;22.30;99.90
7216;DHT22;3649;48.798;9.798;2022-07-30T06:01:08;22.40;99.90
7216;DHT22;3649;48.798;9.798;2022-07-30T06:03:37;22.40;99.90
7216;DHT22;3649;48.798;9.798;2022-07-30T06:06:05;22.50;99.90
7216;DHT22;3649;48.798;9.798;2022-07-30T06:08:32;22.50;99.90
7216;DHT22;3649;48.798;9.798;2022-07-30T06:10:59;22.50;99.90
7216;DHT22;3649;48.798;9.798;2022-07-30T06:13:26;22.70;99.90
7216;DHT22;3649;48.798;9.798;2022-07-30T06:15:53;22.70;99.90
7216;DHT22;3649;48.798;9.798;2022-07-30T06:18:20;22.60;99.90
7216;DHT22;3649;48.798;9.798;2022-07-30T06:20:49;22.70;99.90
7216;DHT22;3649;48.798;9.798;2022-07-30T06:23:17;22.70;99.90
7216;DHT22;3649;48.798;9.798;2022-07-30T06:25:45;22.80;99.90
7216;DHT22;3649;48.798;9.798;2022-07-30T06:28:14;22.80;99.90
7216;DHT22;3649;48.798;9.798;2022-07-30T06:31:01;22.90;99.90
7216;DHT22;3649;48.798;9.798;2022-07-30T06:33:28;22.90;99.90
7216;DHT22;3649;48.798;9.798;2022-07-30T06:35:55;23.00;99.90
7216;DHT22;3649;48.798;9.798;2022-07-30T06:38:22;23.00;99.90
7216;DHT22;3649;48.798;9.798;2022-07-30T06:40:49;23.10;99.90
7216;DHT22;3649;48.798;9.798;2022-07-30T06:43:17;23.10;99.90
7216;DHT22;3649;48.798;9.798;2022-07-30T06:45:45;23.10;99.90
7216;DHT22;3649;48.798;9.798;2022-07-30T06:48:12;23.10;99.90
7216;DHT22;3649;48.798;9.798;2022-07-30T06:50:39;23.20;99.90
7216;DHT22;3649;48.798;9.798;2022-07-30T06:53:07;23.30;99.90
7216;DHT22;3649;48.798;9.798;2022-07-30T06:55:34;23.30;99.90
7216;DHT22;3649;48.798;9.798;2022-07-30T06:58:01;23.50;99.90
7216;DHT22;3649;48.798;9.798;2022-07-30T07:00:28;23.60;99.90
7216;DHT22;3649;48.798;9.798;2022-07-30T07:02:54;23.60;99.90
7216;DHT22;3649;48.798;9.798;2022-07-30T07:05:21;23.70;99.90
7216;DHT22;3649;48.798;9.798;2022-07-30T07:07:49;23.90;99.90
7216;DHT22;3649;48.798;9.798;2022-07-30T07:10:25;24.10;99.90
7216;DHT22;3649;48.798;9.798;2022-07-30T07:12:52;24.30;99.90
7216;DHT22;3649;48.798;9.798;2022-07-30T07:15:19;24.50;99.90
7216;DHT22;3649;48.798;9.798;2022-07-30T07:17:48;24.60;99.90
7216;DHT22;3649;48.798;9.798;2022-07-30T07:20:14;24.80;99.90
7216;DHT22;3649;48.798;9.798;2022-07-30T07:22:41;24.90;99.90
7216;DHT22;3649;48.798;9.798;2022-07-30T07:25:10;25.00;99.90
7216;DHT22;3649;48.798;9.798;2022-07-30T07:27:38;25.10;99.90
7216;DHT22;3649;48.798;9.798;2022-07-30T07:30:05;25.30;99.90
7216;DHT22;3649;48.798;9.798;2022-07-30T07:32:33;25.40;99.90
7216;DHT22;3649;48.798;9.798;2022-07-30T07:35:00;25.50;99.90
7216;DHT22;3649;48.798;9.798;2022-07-30T07:37:27;25.50;99.90
7216;DHT22;3649;48.798;9.798;2022-07-30T07:39:54;25.50;99.90
7216;DHT22;3649;48.798;9.798;2022-07-30T07:42:21;25.70;99.90
7216;DHT22;3649;48.798;9.798;2022-07-30T07:44:48;25.80;99.90
7216;DHT22;3649;48.798;9.798;2022-07-30T07:47:15;25.90;99.90
7216;DHT22;3649;48.798;9.798;2022-07-30T07:49:42;26.00;99.90
7216;DHT22;3649;48.798;9.798;2022-07-30T07:52:09;26.10;99.90
7216;DHT22;3649;48.798;9.798;2022-07-30T07:54:36;26.10;99.90
7216;DHT22;3649;48.798;9.798;2022-07-30T07:57:04;26.10;99.90
7216;DHT22;3649;48.798;9.798;2022-07-30T07:59:36;26.20;99.90
7216;DHT22;3649;48.798;9.798;2022-07-30T08:02:07;26.30;99.90
7216;DHT22;3649;48.798;9.798;2022-07-30T08:04:35;26.30;99.90
7216;DHT22;3649;48.798;9.798;2022-07-30T08:07:02;26.30;99.90
7216;DHT22;3649;48.798;9.798;2022-07-30T08:09:29;26.40;99.90
7216;DHT22;3649;48.798;9.798;2022-07-30T08:12:13;26.50;99.90
7216;DHT22;3649;48.798;9.798;2022-07-30T08:14:40;26.50;99.90
7216;DHT22;3649;48.798;9.798;2022-07-30T08:17:06;26.40;99.90
7216;DHT22;3649;48.798;9.798;2022-07-30T08:19:34;26.40;99.90
7216;DHT22;3649;48.798;9.798;2022-07-30T08:22:01;26.50;99.90
7216;DHT22;3649;48.798;9.798;2022-07-30T08:24:28;26.50;99.90
7216;DHT22;3649;48.798;9.798;2022-07-30T08:26:55;26.40;99.90
7216;DHT22;3649;48.798;9.798;2022-07-30T08:29:22;26.50;99.90
7216;DHT22;3649;48.798;9.798;2022-07-30T08:31:49;26.50;99.90
7216;DHT22;3649;48.798;9.798;2022-07-30T08:34:16;26.50;99.90
7216;DHT22;3649;48.798;9.798;2022-07-30T08:36:43;26.40;99.40
7216;DHT22;3649;48.798;9.798;2022-07-30T08:39:10;26.40;99.10
7216;DHT22;3649;48.798;9.798;2022-07-30T08:41:37;26.40;99.30
7216;DHT22;3649;48.798;9.798;2022-07-30T08:44:09;26.40;99.10
7216;DHT22;3649;48.798;9.798;2022-07-30T08:46:42;26.50;98.90
7216;DHT22;3649;48.798;9.798;2022-07-30T08:49:13;26.50;99.10
7216;DHT22;3649;48.798;9.798;2022-07-30T08:51:40;26.40;99.40
7216;DHT22;3649;48.798;9.798;2022-07-30T08:54:08;26.60;98.60
7216;DHT22;3649;48.798;9.798;2022-07-30T08:56:36;26.50;98.10
7216;DHT22;3649;48.798;9.798;2022-07-30T08:59:03;26.50;98.10
7216;DHT22;3649;48.798;9.798;2022-07-30T09:01:30;26.50;97.00
7216;DHT22;3649;48.798;9.798;2022-07-30T09:03:57;26.50;97.50
7216;DHT22;3649;48.798;9.798;2022-07-30T09:06:24;26.40;97.10
7216;DHT22;3649;48.798;9.798;2022-07-30T09:08:51;26.40;97.30
7216;DHT22;3649;48.798;9.798;2022-07-30T09:11:18;26.50;97.50
7216;DHT22;3649;48.798;9.798;2022-07-30T09:13:44;26.50;97.70
7216;DHT22;3649;48.798;9.798;2022-07-30T09:16:25;26.60;97.80
7216;DHT22;3649;48.798;9.798;2022-07-30T09:18:53;26.50;97.20
7216;DHT22;3649;48.798;9.798;2022-07-30T09:21:25;26.40;96.20
7216;DHT22;3649;48.798;9.798;2022-07-30T09:23:59;26.40;96.70
7216;DHT22;3649;48.798;9.798;2022-07-30T09:26:30;26.40;97.00
7216;DHT22;3649;48.798;9.798;2022-07-30T09:29:20;26.40;95.50
7216;DHT22;3649;48.798;9.798;2022-07-30T09:31:55;26.40;95.10
7216;DHT22;3649;48.798;9.798;2022-07-30T09:34:36;26.30;95.40
7216;DHT22;3649;48.798;9.798;2022-07-30T09:37:16;26.30;95.10
7216;DHT22;3649;48.798;9.798;2022-07-30T09:39:43;26.20;95.00
7216;DHT22;3649;48.798;9.798;2022-07-30T09:42:27;26.20;95.50
7216;DHT22;3649;48.798;9.798;2022-07-30T09:45:13;26.20;95.50
7216;DHT22;3649;48.798;9.798;2022-07-30T09:47:42;26.20;95.70
7216;DHT22;3649;48.798;9.798;2022-07-30T09:50:12;26.20;95.00
7216;DHT22;3649;48.798;9.798;2022-07-30T09:53:08;26.20;94.60
7216;DHT22;3649;48.798;9.798;2022-07-30T09:55:37;26.10;94.30
7216;DHT22;3649;48.798;9.798;2022-07-30T09:58:08;26.10;94.70
7216;DHT22;3649;48.798;9.798;2022-07-30T10:00:39;26.10;94.10
7216;DHT22;3649;48.798;9.798;2022-07-30T10:06:00;26.10;94.80
7216;DHT22;3649;48.798;9.798;2022-07-30T10:08:40;26.20;94.40
7216;DHT22;3649;48.798;9.798;2022-07-30T10:11:18;26.30;95.10
7216;DHT22;3649;48.798;9.798;2022-07-30T10:13:53;26.30;94.10
7216;DHT22;3649;48.798;9.798;2022-07-30T10:16:21;26.30;93.90
7216;DHT22;3649;48.798;9.798;2022-07-30T10:18:51;26.40;93.80
7216;DHT22;3649;48.798;9.798;2022-07-30T10:21:18;26.50;94.10
7216;DHT22;3649;48.798;9.798;2022-07-30T10:23:45;26.50;94.50
7216;DHT22;3649;48.798;9.798;2022-07-30T10:26:16;26.50;94.40
7216;DHT22;3649;48.798;9.798;2022-07-30T10:28:44;26.50;94.10
7216;DHT22;3649;48.798;9.798;2022-07-30T10:31:12;26.60;94.30
7216;DHT22;3649;48.798;9.798;2022-07-30T10:34:01;26.60;94.60
7216;DHT22;3649;48.798;9.798;2022-07-30T10:36:28;26.60;94.20
7216;DHT22;3649;48.798;9.798;2022-07-30T10:38:56;26.60;94.50
7216;DHT22;3649;48.798;9.798;2022-07-30T10:44:40;26.60;94.10
7216;DHT22;3649;48.798;9.798;2022-07-30T10:47:15;26.60;93.80
7216;DHT22;3649;48.798;9.798;2022-07-30T10:52:45;26.70;94.00
7216;DHT22;3649;48.798;9.798;2022-07-30T10:55:13;26.70;93.30
7216;DHT22;3649;48.798;9.798;2022-07-30T10:58:02;26.70;93.70
7216;DHT22;3649;48.798;9.798;2022-07-30T11:00:33;26.80;93.10
7216;DHT22;3649;48.798;9.798;2022-07-30T11:03:33;26.80;93.60
7216;DHT22;3649;48.798;9.798;2022-07-30T11:08:44;26.90;92.90
7216;DHT22;3649;48.798;9.798;2022-07-30T11:14:06;26.80;92.80
7216;DHT22;3649;48.798;9.798;2022-07-30T11:19:13;26.90;92.70
7216;DHT22;3649;48.798;9.798;2022-07-30T11:22:26;26.90;93.30
7216;DHT22;3649;48.798;9.798;2022-07-30T11:24:55;26.90;93.90
7216;DHT22;3649;48.798;9.798;2022-07-30T11:27:39;26.90;93.70
7216;DHT22;3649;48.798;9.798;2022-07-30T11:32:57;26.90;93.30
7216;DHT22;3649;48.798;9.798;2022-07-30T11:36:04;26.90;93.10
7216;DHT22;3649;48.798;9.798;2022-07-30T11:38:53;26.10;92.60
7216;DHT22;3649;48.798;9.798;2022-07-30T11:41:25;26.90;92.60
7216;DHT22;3649;48.798;9.798;2022-07-30T11:44:27;26.80;92.60
7216;DHT22;3649;48.798;9.798;2022-07-30T11:46:54;26.90;92.70
7216;DHT22;3649;48.798;9.798;2022-07-30T11:49:21;26.90;92.70
7216;DHT22;3649;48.798;9.798;2022-07-30T11:51:48;27.00;92.50
7216;DHT22;3649;48.798;9.798;2022-07-30T11:54:16;27.00;92.70
7216;DHT22;3649;48.798;9.798;2022-07-30T11:56:52;27.10;92.60
7216;DHT22;3649;48.798;9.798;2022-07-30T11:59:19;27.10;92.50
7216;DHT22;3649;48.798;9.798;2022-07-30T12:01:51;27.20;92.40
7216;DHT22;3649;48.798;9.798;2022-07-30T12:04:19;27.30;92.60
7216;DHT22;3649;48.798;9.798;2022-07-30T12:06:47;27.40;92.60
7216;DHT22;3649;48.798;9.798;2022-07-30T12:09:24;27.40;92.60
7216;DHT22;3649;48.798;9.798;2022-07-30T12:11:55;27.40;93.10
7216;DHT22;3649;48.798;9.798;2022-07-30T12:14:23;27.30;93.40
7216;DHT22;3649;48.798;9.798;2022-07-30T12:16:51;27.20;93.30
7216;DHT22;3649;48.798;9.798;2022-07-30T12:19:19;27.20;92.70
7216;DHT22;3649;48.798;9.798;2022-07-30T12:21:46;27.30;92.70
7216;DHT22;3649;48.798;9.798;2022-07-30T12:24:24;27.30;92.60
7216;DHT22;3649;48.798;9.798;2022-07-30T12:26:52;27.20;93.20
7216;DHT22;3649;48.798;9.798;2022-07-30T12:29:29;27.20;92.60
7216;DHT22;3649;48.798;9.798;2022-07-30T12:31:57;27.20;92.90
7216;DHT22;3649;48.798;9.798;2022-07-30T12:34:25;27.20;92.50
7216;DHT22;3649;48.798;9.798;2022-07-30T12:36:53;27.20;92.30
7216;DHT22;3649;48.798;9.798;2022-07-30T12:39:25;27.30;91.70
7216;DHT22;3649;48.798;9.798;2022-07-30T12:41:53;27.30;91.80
7216;DHT22;3649;48.798;9.798;2022-07-30T12:44:41;27.40;92.70
7216;DHT22;3649;48.798;9.798;2022-07-30T12:47:22;27.50;91.60
7216;DHT22;3649;48.798;9.798;2022-07-30T12:49:54;27.50;92.00
7216;DHT22;3649;48.798;9.798;2022-07-30T12:52:33;27.50;91.80
7216;DHT22;3649;48.798;9.798;2022-07-30T12:55:09;27.60;91.70
7216;DHT22;3649;48.798;9.798;2022-07-30T12:57:55;27.60;91.60
7216;DHT22;3649;48.798;9.798;2022-07-30T13:00:25;27.70;91.90
7216;DHT22;3649;48.798;9.798;2022-07-30T13:02:52;27.60;91.60
7216;DHT22;3649;48.798;9.798;2022-07-30T13:05:20;27.70;91.40
7216;DHT22;3649;48.798;9.798;2022-07-30T13:07:54;27.70;90.80
7216;DHT22;3649;48.798;9.798;2022-07-30T13:10:22;27.80;90.60
7216;DHT22;3649;48.798;9.798;2022-07-30T13:12:56;27.80;91.90
7216;DHT22;3649;48.798;9.798;2022-07-30T13:15:24;27.60;91.30
7216;DHT22;3649;48.798;9.798;2022-07-30T13:17:51;27.90;90.50
7216;DHT22;3649;48.798;9.798;2022-07-30T13:20:19;27.90;89.90
7216;DHT22;3649;48.798;9.798;2022-07-30T13:22:46;28.00;89.90
7216;DHT22;3649;48.798;9.798;2022-07-30T13:25:13;28.10;90.00
7216;DHT22;3649;48.798;9.798;2022-07-30T13:27:40;28.10;90.70
7216;DHT22;3649;48.798;9.798;2022-07-30T13:30:08;28.00;89.00
7216;DHT22;3649;48.798;9.798;2022-07-30T13:32:35;28.10;88.70
7216;DHT22;3649;48.798;9.798;2022-07-30T13:35:02;28.10;88.60
7216;DHT22;3649;48.798;9.798;2022-07-30T13:37:30;28.20;88.30
7216;DHT22;3649;48.798;9.798;2022-07-30T13:40:04;28.20;88.20
7216;DHT22;3649;48.798;9.798;2022-07-30T13:42:32;28.20;88.40
7216;DHT22;3649;48.798;9.798;2022-07-30T13:44:58;28.30;87.80
7216;DHT22;3649;48.798;9.798;2022-07-30T13:47:25;28.20;89.00
7216;DHT22;3649;48.798;9.798;2022-07-30T13:49:52;28.30;89.10
7216;DHT22;3649;48.798;9.798;2022-07-30T13:52:19;28.30;88.30
7216;DHT22;3649;48.798;9.798;2022-07-30T13:54:46;28.30;87.40
7216;DHT22;3649;48.798;9.798;2022-07-30T13:57:13;28.40;87.50
7216;DHT22;3649;48.798;9.798;2022-07-30T13:59:40;28.40;87.70
7216;DHT22;3649;48.798;9.798;2022-07-30T14:02:07;28.50;89.60
7216;DHT22;3649;48.798;9.798;2022-07-30T14:04:34;28.40;88.60
7216;DHT22;3649;48.798;9.798;2022-07-30T14:07:01;28.40;88.60
7216;DHT22;3649;48.798;9.798;2022-07-30T14:09:28;28.40;88.70
7216;DHT22;3649;48.798;9.798;2022-07-30T14:11:55;28.40;90.20
7216;DHT22;3649;48.798;9.798;2022-07-30T14:14:22;28.40;88.70
7216;DHT22;3649;48.798;9.798;2022-07-30T14:16:49;28.50;87.70
7216;DHT22;3649;48.798;9.798;2022-07-30T14:19:19;28.60;87.60
7216;DHT22;3649;48.798;9.798;2022-07-30T14:21:51;28.60;87.90
7216;DHT22;3649;48.798;9.798;2022-07-30T14:24:19;28.60;89.30
7216;DHT22;3649;48.798;9.798;2022-07-30T14:26:46;28.60;89.60
7216;DHT22;3649;48.798;9.798;2022-07-30T14:29:13;28.50;90.20
7216;DHT22;3649;48.798;9.798;2022-07-30T14:31:40;28.50;90.20
7216;DHT22;3649;48.798;9.798;2022-07-30T14:34:07;28.50;89.70
7216;DHT22;3649;48.798;9.798;2022-07-30T14:36:34;28.50;89.10
7216;DHT22;3649;48.798;9.798;2022-07-30T14:39:03;28.60;88.00
7216;DHT22;3649;48.798;9.798;2022-07-30T14:41:31;28.60;87.60
7216;DHT22;3649;48.798;9.798;2022-07-30T14:43:58;28.60;88.10
7216;DHT22;3649;48.798;9.798;2022-07-30T14:46:24;28.60;88.80
7216;DHT22;3649;48.798;9.798;2022-07-30T14:48:51;28.60;88.20
7216;DHT22;3649;48.798;9.798;2022-07-30T14:51:18;28.60;88.00
7216;DHT22;3649;48.798;9.798;2022-07-30T14:53:52;28.70;88.30
7216;DHT22;3649;48.798;9.798;2022-07-30T14:56:20;28.70;88.90
7216;DHT22;3649;48.798;9.798;2022-07-30T14:58:47;28.60;90.10
7216;DHT22;3649;48.798;9.798;2022-07-30T15:01:14;28.60;89.40
7216;DHT22;3649;48.798;9.798;2022-07-30T15:03:46;28.60;88.10
7216;DHT22;3649;48.798;9.798;2022-07-30T15:06:13;28.70;89.90
7216;DHT22;3649;48.798;9.798;2022-07-30T15:08:41;28.70;89.10
7216;DHT22;3649;48.798;9.798;2022-07-30T15:11:08;28.70;88.00
7216;DHT22;3649;48.798;9.798;2022-07-30T15:13:35;28.80;88.90
7216;DHT22;3649;48.798;9.798;2022-07-30T15:16:16;28.80;89.00
7216;DHT22;3649;48.798;9.798;2022-07-30T15:18:43;28.70;88.80
7216;DHT22;3649;48.798;9.798;2022-07-30T15:21:10;28.70;88.60
7216;DHT22;3649;48.798;9.798;2022-07-30T15:23:38;28.80;89.00
7216;DHT22;3649;48.798;9.798;2022-07-30T15:26:05;28.80;89.70
7216;DHT22;3649;48.798;9.798;2022-07-30T15:28:31;28.80;90.10
7216;DHT22;3649;48.798;9.798;2022-07-30T15:30:58;28.70;89.60
7216;DHT22;3649;48.798;9.798;2022-07-30T15:33:25;28.70;88.60
7216;DHT22;3649;48.798;9.798;2022-07-30T15:35:52;28.80;89.30
7216;DHT22;3649;48.798;9.798;2022-07-30T15:38:21;28.80;89.10
7216;DHT22;3649;48.798;9.798;2022-07-30T15:40:48;28.70;87.90
7216;DHT22;3649;48.798;9.798;2022-07-30T15:43:15;28.80;88.30
7216;DHT22;3649;48.798;9.798;2022-07-30T15:45:42;28.70;88.60
7216;DHT22;3649;48.798;9.798;2022-07-30T15:48:23;28.70;87.80
7216;DHT22;3649;48.798;9.798;2022-07-30T15:50:59;28.70;87.20
7216;DHT22;3649;48.798;9.798;2022-07-30T15:53:27;28.70;86.90
7216;DHT22;3649;48.798;9.798;2022-07-30T15:55:56;28.60;86.40
7216;DHT22;3649;48.798;9.798;2022-07-30T15:58:22;28.60;86.60
7216;DHT22;3649;48.798;9.798;2022-07-30T16:00:49;28.60;87.90
7216;DHT22;3649;48.798;9.798;2022-07-30T16:03:16;28.60;87.30
7216;DHT22;3649;48.798;9.798;2022-07-30T16:05:43;28.50;87.30
7216;DHT22;3649;48.798;9.798;2022-07-30T16:08:19;28.60;87.70
7216;DHT22;3649;48.798;9.798;2022-07-30T16:10:46;28.60;87.50
7216;DHT22;3649;48.798;9.798;2022-07-30T16:13:12;28.60;87.30
7216;DHT22;3649;48.798;9.798;2022-07-30T16:15:39;28.60;88.10
7216;DHT22;3649;48.798;9.798;2022-07-30T16:18:06;28.60;87.60
7216;DHT22;3649;48.798;9.798;2022-07-30T16:20:33;28.60;87.40
7216;DHT22;3649;48.798;9.798;2022-07-30T16:23:00;28.50;88.00
7216;DHT22;3649;48.798;9.798;2022-07-30T16:25:27;28.50;89.00
7216;DHT22;3649;48.798;9.798;2022-07-30T16:27:54;28.50;88.00
7216;DHT22;3649;48.798;9.798;2022-07-30T16:30:21;28.50;87.70
7216;DHT22;3649;48.798;9.798;2022-07-30T16:32:53;28.50;88.20
7216;DHT22;3649;48.798;9.798;2022-07-30T16:35:22;28.50;88.80
7216;DHT22;3649;48.798;9.798;2022-07-30T16:37:49;28.40;88.30
7216;DHT22;3649;48.798;9.798;2022-07-30T16:40:16;28.30;89.50